Time;durP1;ratioP1;P1;durP2;ratioP2;P2;SDS_P1;SDS_P2;PMS_P1;PMS_P2;Temp;Humidity;BMP_temperature;BMP_pressure;BME280_temperature;BME280_humidity;BME280_pressure;Samples;Min_cycle;Max_cycle;Signal;HPM_P1;HPM_P2
2023/08/29 00:02:12;;;;;;;5.22;4.72;;;;;;;25.94;39.55;94394.38;6102586;28;108950;-64
2023/08/29 00:05:15;;;;;;;5.80;4.50;;;;;;;25.89;39.65;94394.66;6106847;28;108659;-65
2023/08/29 00:08:18;;;;;;;4.72;4.00;;;;;;;25.83;39.75;94396.78;6107810;28;108657;-63
2023/08/29 00:11:21;;;;;;;6.15;4.70;;;;;;;25.89;39.82;94384.72;6101537;28;108749;-63
2023/08/29 00:14:26;;;;;;;5.03;4.53;;;;;;;25.79;39.88;94393.25;6113540;28;108883;-65
2023/08/29 00:17:29;;;;;;;4.70;4.30;;;;;;;25.72;40.25;94397.66;6096582;28;108899;-63
2023/08/29 00:20:32;;;;;;;5.40;4.32;;;;;;;25.75;40.29;94388.94;6109692;28;108821;-63
2023/08/29 00:23:35;;;;;;;4.50;4.10;;;;;;;25.73;40.47;94391.19;6089950;28;109038;-63
2023/08/29 00:26:38;;;;;;;4.40;4.00;;;;;;;25.57;40.44;94388.47;6092904;28;108690;-63
2023/08/29 00:29:44;;;;;;;4.70;4.20;;;;;;;25.57;40.36;94399.97;6111397;28;109115;-64
2023/08/29 00:32:47;;;;;;;6.07;4.20;;;;;;;25.72;40.31;94403.81;6109511;28;109207;-63
2023/08/29 00:35:50;;;;;;;4.90;4.40;;;;;;;25.47;40.47;94388.97;6100067;28;108931;-63
2023/08/29 00:38:53;;;;;;;5.40;4.30;;;;;;;25.58;40.21;94400.75;6094199;28;108756;-66
2023/08/29 00:41:56;;;;;;;4.70;4.20;;;;;;;25.42;40.59;94391.91;6105807;28;108815;-64
2023/08/29 00:45:01;;;;;;;4.82;4.28;;;;;;;25.63;40.29;94381.75;6101317;28;108778;-65
2023/08/29 00:48:08;;;;;;;6.45;4.47;;;;;;;25.74;40.36;94380.13;6107120;28;109341;-64
2023/08/29 00:51:12;;;;;;;4.80;4.00;;;;;;;25.80;40.31;94384.09;6112183;28;108914;-65
2023/08/29 00:54:16;;;;;;;4.90;4.47;;;;;;;25.73;40.29;94388.50;6113257;28;108808;-65
2023/08/29 00:57:19;;;;;;;5.72;4.20;;;;;;;25.74;40.51;94388.16;6102127;28;108617;-65
2023/08/29 01:00:24;;;;;;;4.90;4.30;;;;;;;25.73;40.33;94386.59;6111197;28;108991;-64
2023/08/29 01:03:27;;;;;;;5.20;4.40;;;;;;;25.63;40.48;94382.53;6112555;28;108985;-66
2023/08/29 01:06:31;;;;;;;4.35;3.95;;;;;;;25.77;40.39;94376.75;6113212;28;108603;-64
2023/08/29 01:09:35;;;;;;;5.57;4.30;;;;;;;25.76;40.38;94379.78;6100440;28;109202;-63
2023/08/29 01:12:46;;;;;;;5.17;4.43;;;;;;;25.66;39.82;94371.09;6111569;28;109498;-62
2023/08/29 01:15:53;;;;;;;4.67;4.17;;;;;;;25.78;40.37;94369.47;6112392;28;108841;-62
2023/08/29 01:18:57;;;;;;;4.70;4.30;;;;;;;25.72;40.63;94368.97;6099417;28;108837;-62
2023/08/29 01:22:17;;;;;;;5.88;4.70;;;;;;;25.63;40.60;94363.75;6105100;28;109054;-62
2023/08/29 01:25:27;;;;;;;5.80;4.20;;;;;;;25.68;40.42;94357.34;6112642;28;108622;-61
2023/08/29 01:28:33;;;;;;;6.35;4.95;;;;;;;25.74;40.46;94350.63;6111301;28;109033;-61
2023/08/29 01:31:37;;;;;;;5.17;4.20;;;;;;;25.76;40.02;94343.03;6100798;28;108850;-63
2023/08/29 01:34:42;;;;;;;5.30;4.07;;;;;;;25.71;40.69;94347.84;6111913;28;108724;-62
2023/08/29 01:37:45;;;;;;;5.13;4.60;;;;;;;25.68;40.46;94341.28;6095786;28;109931;-63
2023/08/29 01:40:48;;;;;;;5.57;4.60;;;;;;;25.67;40.20;94345.88;6111865;28;108864;-62
2023/08/29 01:43:52;;;;;;;5.00;4.50;;;;;;;25.72;40.21;94338.72;6100348;28;109084;-62
2023/08/29 01:46:56;;;;;;;5.28;4.20;;;;;;;25.67;40.81;94339.72;6100090;28;109022;-64
2023/08/29 01:50:02;;;;;;;5.50;4.20;;;;;;;25.64;40.94;94333.16;6106558;28;109114;-62
2023/08/29 01:53:05;;;;;;;5.70;4.50;;;;;;;25.69;40.78;94332.88;6105434;28;108888;-62
2023/08/29 01:56:09;;;;;;;4.90;4.30;;;;;;;25.63;40.86;94328.16;6107335;28;108936;-62
2023/08/29 01:59:13;;;;;;;6.50;4.30;;;;;;;25.71;40.59;94329.09;6109945;28;111310;-62
2023/08/29 02:02:17;;;;;;;4.68;4.20;;;;;;;25.68;40.90;94331.34;6111368;28;109703;-62
2023/08/29 02:05:20;;;;;;;5.27;4.77;;;;;;;25.66;40.51;94335.50;6102628;28;109225;-63
2023/08/29 02:08:23;;;;;;;6.30;4.40;;;;;;;25.64;41.23;94333.16;6111299;28;108877;-61
2023/08/29 02:11:26;;;;;;;4.88;4.38;;;;;;;25.71;40.71;94337.13;6111309;28;109181;-62
2023/08/29 02:14:31;;;;;;;5.35;4.60;;;;;;;25.62;41.18;94327.38;6111222;28;109044;-62
2023/08/29 02:17:34;;;;;;;5.95;4.65;;;;;;;25.59;40.67;94335.31;6099721;28;109185;-62
2023/08/29 02:20:37;;;;;;;5.00;4.50;;;;;;;25.60;40.84;94329.63;6110726;28;108924;-61
2023/08/29 02:23:40;;;;;;;5.60;4.30;;;;;;;25.67;41.07;94334.38;6111867;28;110801;-64
2023/08/29 02:26:43;;;;;;;4.88;4.30;;;;;;;25.79;40.55;94331.59;6110908;28;108717;-65
2023/08/29 02:29:48;;;;;;;5.05;4.55;;;;;;;25.80;40.48;94343.88;6101990;28;108804;-65
2023/08/29 02:32:52;;;;;;;6.18;4.50;;;;;;;25.88;40.10;94334.91;6110925;28;108636;-65
2023/08/29 02:35:56;;;;;;;6.70;4.50;;;;;;;25.95;40.49;94332.38;6110881;28;108770;-65
2023/08/29 02:38:59;;;;;;;5.20;4.70;;;;;;;26.06;39.87;94329.19;6100899;28;108897;-64
2023/08/29 02:42:02;;;;;;;5.00;4.45;;;;;;;26.13;40.16;94324.00;6110092;28;108958;-65
2023/08/29 02:45:07;;;;;;;6.70;4.63;;;;;;;26.17;39.52;94328.28;6110841;28;108638;-62
2023/08/29 02:48:11;;;;;;;4.70;4.30;;;;;;;26.14;39.71;94330.91;6110052;28;109030;-64
2023/08/29 02:51:14;;;;;;;6.60;4.70;;;;;;;26.16;39.84;94315.25;6099255;28;108798;-64
2023/08/29 02:54:18;;;;;;;5.23;4.43;;;;;;;26.19;39.81;94315.31;6109937;28;109251;-64
2023/08/29 02:57:21;;;;;;;5.00;4.50;;;;;;;26.08;39.72;94317.00;6101412;28;108683;-64
2023/08/29 03:00:25;;;;;;;5.78;4.47;;;;;;;26.11;39.75;94316.28;6100004;28;109298;-65
2023/08/29 03:03:29;;;;;;;5.30;4.80;;;;;;;26.14;39.65;94323.63;6099675;28;108835;-64
2023/08/29 03:06:32;;;;;;;7.45;4.82;;;;;;;26.13;39.85;94324.75;6091476;28;109095;-65
2023/08/29 03:09:35;;;;;;;7.85;4.65;;;;;;;25.90;40.60;94321.16;6107728;28;109235;-64
2023/08/29 03:12:38;;;;;;;5.70;4.95;;;;;;;25.78;40.76;94319.31;6105285;28;108747;-65
2023/08/29 03:15:43;;;;;;;6.68;4.40;;;;;;;25.81;40.55;94317.84;6103916;28;108870;-64
2023/08/29 03:18:46;;;;;;;5.55;4.80;;;;;;;25.85;40.71;94318.72;6109412;28;109071;-63
2023/08/29 03:21:49;;;;;;;5.43;4.82;;;;;;;25.94;40.65;94317.41;6109579;28;108654;-64
2023/08/29 03:24:53;;;;;;;6.30;5.75;;;;;;;25.94;40.47;94312.06;6098270;28;109193;-64
2023/08/29 03:27:56;;;;;;;6.10;5.50;;;;;;;26.03;41.29;94313.78;6108490;28;109010;-65
2023/08/29 03:31:10;;;;;;;6.63;5.50;;;;;;;26.26;41.30;94312.81;6110319;28;108667;-63
2023/08/29 03:34:15;;;;;;;5.50;5.00;;;;;;;26.37;41.09;94309.56;6109661;28;108946;-70
2023/08/29 03:37:19;;;;;;;5.82;5.20;;;;;;;26.18;40.42;94312.97;6098915;28;109157;-69
2023/08/29 03:40:22;;;;;;;5.15;4.40;;;;;;;25.20;42.21;94315.53;6111654;28;108896;-69
2023/08/29 03:43:28;;;;;;;7.40;5.00;;;;;;;25.20;42.30;94320.88;6109473;28;109200;-70
2023/08/29 03:46:32;;;;;;;5.72;4.80;;;;;;;25.65;41.41;94315.19;6103739;28;109141;-69
2023/08/29 03:49:35;;;;;;;6.63;5.00;;;;;;;25.95;40.73;94313.59;6104885;28;108908;-68
2023/08/29 03:52:39;;;;;;;8.30;4.70;;;;;;;26.17;40.30;94314.09;6110308;28;108758;-69
2023/08/29 03:55:42;;;;;;;6.47;5.28;;;;;;;26.02;40.58;94312.22;6109422;28;108993;-68
2023/08/29 03:58:45;;;;;;;7.22;4.93;;;;;;;25.86;40.95;94304.19;6100838;28;109214;-69
2023/08/29 04:01:50;;;;;;;6.20;4.90;;;;;;;25.76;41.24;94305.50;6113456;28;109329;-68
2023/08/29 04:04:53;;;;;;;6.45;5.00;;;;;;;25.57;41.81;94300.84;6112637;28;109087;-68
2023/08/29 04:07:57;;;;;;;6.07;5.00;;;;;;;25.48;41.71;94300.22;6112621;28;109195;-68
2023/08/29 04:11:03;;;;;;;6.20;5.30;;;;;;;25.57;42.11;94297.38;6103167;28;108888;-70
2023/08/29 04:14:06;;;;;;;7.53;4.82;;;;;;;25.50;42.15;94294.50;6107143;28;109054;-69
2023/08/29 04:17:10;;;;;;;5.82;4.75;;;;;;;25.39;42.00;94299.63;6107308;28;108950;-68
2023/08/29 04:20:14;;;;;;;5.60;4.88;;;;;;;25.39;42.09;94302.31;6108394;28;108766;-67
2023/08/29 04:23:17;;;;;;;7.90;4.90;;;;;;;25.38;41.87;94292.72;6103687;28;109114;-68
2023/08/29 04:26:21;;;;;;;5.20;4.50;;;;;;;25.37;42.17;94299.97;6113597;28;108703;-69
2023/08/29 04:29:24;;;;;;;6.75;4.63;;;;;;;25.28;41.98;94295.88;6113021;28;108821;-69
2023/08/29 04:32:33;;;;;;;5.78;4.70;;;;;;;25.35;42.08;94296.84;6106387;28;108896;-67
2023/08/29 04:35:37;;;;;;;5.70;4.80;;;;;;;25.28;42.32;94299.31;6112920;28;109069;-69
2023/08/29 04:38:41;;;;;;;5.53;4.70;;;;;;;25.34;41.93;94299.84;6113540;28;109310;-69
2023/08/29 04:41:45;;;;;;;6.03;4.75;;;;;;;25.36;42.09;94293.03;6113526;28;109409;-71
2023/08/29 04:44:48;;;;;;;5.30;4.80;;;;;;;25.35;41.77;94296.06;6103108;28;108798;-70
2023/08/29 04:47:52;;;;;;;5.33;4.80;;;;;;;25.27;42.14;94294.31;6112495;28;108575;-69
2023/08/29 04:50:56;;;;;;;5.70;4.70;;;;;;;25.32;41.94;94288.69;6113732;28;108720;-70
2023/08/29 04:53:59;;;;;;;7.00;5.57;;;;;;;25.39;41.89;94286.22;6113710;28;108854;-70
2023/08/29 04:57:04;;;;;;;7.20;4.82;;;;;;;24.88;42.79;94302.09;6104160;28;108670;-70
2023/08/29 05:00:09;;;;;;;5.70;5.20;;;;;;;24.69;43.24;94291.22;6112628;28;108719;-70
2023/08/29 05:03:14;;;;;;;5.30;4.80;;;;;;;24.48;43.76;94291.38;6113893;28;108953;-69
2023/08/29 05:06:17;;;;;;;6.30;4.80;;;;;;;24.42;43.78;94296.22;6108849;28;109933;-69
2023/08/29 05:09:20;;;;;;;5.18;4.63;;;;;;;24.39;43.99;94286.19;6107891;28;109084;-70
2023/08/29 05:12:24;;;;;;;5.22;4.72;;;;;;;24.43;43.84;94268.34;6112700;28;108814;-68
2023/08/29 05:15:27;;;;;;;5.07;4.57;;;;;;;24.56;43.57;94273.66;6113658;28;109001;-70
2023/08/29 05:18:32;;;;;;;5.43;4.63;;;;;;;24.39;44.07;94272.03;6101620;28;108883;-70
2023/08/29 05:21:35;;;;;;;5.80;5.00;;;;;;;24.53;43.53;94274.31;6112538;28;108753;-69
2023/08/29 05:24:38;;;;;;;7.30;4.60;;;;;;;24.52;43.62;94281.56;6108816;28;108998;-71
2023/08/29 05:27:41;;;;;;;5.13;4.63;;;;;;;24.50;43.84;94278.44;6113823;28;108587;-71
2023/08/29 05:30:45;;;;;;;5.83;4.80;;;;;;;24.60;43.22;94269.19;6101629;28;108829;-69
2023/08/29 05:33:50;;;;;;;5.20;4.20;;;;;;;24.71;43.70;94272.97;6113192;28;108668;-69
2023/08/29 05:36:53;;;;;;;5.50;4.53;;;;;;;24.72;43.42;94274.53;6113565;28;108823;-70
2023/08/29 05:39:56;;;;;;;5.90;4.80;;;;;;;24.91;43.23;94274.66;6110544;28;108739;-69
2023/08/29 05:42:59;;;;;;;7.40;4.90;;;;;;;25.09;42.43;94273.22;6105874;28;110811;-69
2023/08/29 05:46:03;;;;;;;5.80;4.68;;;;;;;25.31;41.87;94268.38;6112676;28;108867;-66
2023/08/29 05:49:08;;;;;;;5.70;4.75;;;;;;;25.56;41.91;94269.03;6111016;28;108745;-66
2023/08/29 05:52:11;;;;;;;5.33;4.83;;;;;;;25.77;41.60;94268.75;6101989;28;109043;-68
2023/08/29 05:55:14;;;;;;;8.32;4.80;;;;;;;25.93;41.03;94269.50;6111191;28;108832;-66
2023/08/29 05:58:17;;;;;;;5.57;4.95;;;;;;;26.04;40.47;94267.06;6111390;28;108698;-66
2023/08/29 06:01:20;;;;;;;5.20;4.70;;;;;;;26.10;40.71;94269.16;6112298;28;108642;-65
2023/08/29 06:04:25;;;;;;;5.85;5.25;;;;;;;26.17;40.42;94266.59;6100962;28;108796;-65
2023/08/29 06:07:28;;;;;;;6.10;5.50;;;;;;;26.23;40.77;94265.22;6111972;28;109090;-66
2023/08/29 06:10:31;;;;;;;6.35;5.43;;;;;;;26.25;40.56;94262.97;6111441;28;108665;-66
2023/08/29 06:13:34;;;;;;;6.25;5.65;;;;;;;26.35;40.47;94272.34;6111719;28;108688;-66
2023/08/29 06:16:37;;;;;;;5.50;5.00;;;;;;;26.51;40.23;94280.34;6100802;28;108808;-66
2023/08/29 06:19:42;;;;;;;5.70;5.03;;;;;;;26.61;40.23;94279.78;6110523;28;109007;-66
2023/08/29 06:22:45;;;;;;;5.90;5.30;;;;;;;26.68;39.85;94271.91;6110629;28;109403;-68
2023/08/29 06:25:49;;;;;;;6.10;5.20;;;;;;;26.80;40.46;94274.44;6106000;28;109128;-68
2023/08/29 06:28:52;;;;;;;5.97;5.38;;;;;;;26.93;39.92;94269.69;6105101;28;109322;-66
2023/08/29 06:31:56;;;;;;;6.75;5.70;;;;;;;27.06;39.97;94268.41;6111532;28;109341;-67
2023/08/29 06:35:00;;;;;;;6.10;5.30;;;;;;;27.12;39.78;94271.56;6110737;28;109052;-66
2023/08/29 06:38:03;;;;;;;5.57;4.90;;;;;;;27.11;40.06;94280.78;6099553;28;108859;-66
2023/08/29 06:41:07;;;;;;;6.05;4.90;;;;;;;27.10;39.66;94284.59;6111332;28;109058;-67
2023/08/29 06:44:10;;;;;;;5.50;5.00;;;;;;;27.12;39.30;94282.31;6111197;28;109194;-66
2023/08/29 06:47:13;;;;;;;5.33;4.80;;;;;;;27.10;40.06;94273.84;6095604;28;109095;-66
2023/08/29 06:50:18;;;;;;;5.80;5.20;;;;;;;27.09;40.17;94272.28;6099151;28;109469;-66
2023/08/29 06:53:23;;;;;;;5.25;4.60;;;;;;;27.06;39.89;94278.38;6110664;28;108913;-66
2023/08/29 06:56:26;;;;;;;6.22;5.07;;;;;;;27.05;39.44;94271.44;6110816;28;108862;-67
2023/08/29 06:59:29;;;;;;;5.30;4.80;;;;;;;27.08;40.00;94271.50;6108151;28;108949;-67
2023/08/29 07:02:32;;;;;;;5.22;4.70;;;;;;;27.12;39.29;94260.84;6103118;28;109064;-67
2023/08/29 07:05:37;;;;;;;6.30;4.93;;;;;;;27.20;39.09;94259.81;6110462;28;109194;-67
2023/08/29 07:08:40;;;;;;;5.35;4.85;;;;;;;27.30;39.46;94261.16;6110365;28;108686;-66
2023/08/29 07:11:43;;;;;;;5.05;4.55;;;;;;;27.41;39.30;94262.13;6100988;28;110796;-67
2023/08/29 07:14:46;;;;;;;4.93;4.53;;;;;;;27.53;39.12;94267.31;6110124;28;108883;-68
2023/08/29 07:17:50;;;;;;;5.53;4.55;;;;;;;27.48;39.23;94266.84;6110678;28;108950;-67
2023/08/29 07:20:54;;;;;;;6.00;4.70;;;;;;;27.50;38.69;94267.25;6109200;28;109218;-68
2023/08/29 07:23:57;;;;;;;5.00;4.50;;;;;;;27.56;38.31;94269.28;6100304;28;109265;-68
2023/08/29 07:27:00;;;;;;;5.70;4.70;;;;;;;27.67;38.73;94258.69;6110724;28;108930;-68
2023/08/29 07:30:05;;;;;;;6.50;4.47;;;;;;;27.73;38.34;94263.41;6110401;28;109075;-68
2023/08/29 07:33:09;;;;;;;4.85;4.35;;;;;;;27.82;38.45;94263.16;6110500;28;109100;-67
2023/08/29 07:36:13;;;;;;;4.80;4.40;;;;;;;27.84;38.22;94266.25;6101783;28;108848;-67
2023/08/29 07:39:18;;;;;;;5.07;4.57;;;;;;;27.92;37.95;94262.56;6114157;28;108717;-67
2023/08/29 07:42:22;;;;;;;5.20;4.70;;;;;;;28.01;37.89;94257.69;6115469;28;108635;-67
2023/08/29 07:45:25;;;;;;;4.80;4.40;;;;;;;28.07;37.76;94262.78;6109940;28;109628;-68
2023/08/29 07:48:28;;;;;;;5.00;4.50;;;;;;;28.08;38.09;94265.09;6109750;28;109769;-67
2023/08/29 07:51:33;;;;;;;5.20;4.70;;;;;;;28.11;37.68;94268.97;6114048;28;108584;-66
2023/08/29 07:54:36;;;;;;;4.90;4.40;;;;;;;28.18;37.60;94264.47;6114296;28;108679;-69
2023/08/29 07:57:40;;;;;;;5.20;4.70;;;;;;;28.21;38.01;94261.03;6103857;28;108808;-68
2023/08/29 08:00:43;;;;;;;5.23;4.40;;;;;;;28.26;37.82;94268.03;6113859;28;108837;-67
2023/08/29 08:03:47;;;;;;;5.20;4.70;;;;;;;28.31;37.71;94260.41;6114818;28;109729;-67
2023/08/29 08:06:52;;;;;;;5.32;4.68;;;;;;;28.35;37.51;94255.06;6114432;28;108816;-67
2023/08/29 08:09:55;;;;;;;5.05;4.60;;;;;;;28.38;37.68;94265.09;6103241;28;108959;-68
2023/08/29 08:12:58;;;;;;;5.15;4.65;;;;;;;28.43;37.74;94259.41;6114832;28;109086;-66
2023/08/29 08:16:01;;;;;;;5.85;4.80;;;;;;;28.53;37.44;94255.31;6114027;28;109052;-68
2023/08/29 08:19:08;;;;;;;4.90;4.40;;;;;;;28.54;37.28;94246.88;6109319;28;109032;-68
2023/08/29 08:22:14;;;;;;;5.18;4.47;;;;;;;28.57;37.45;94246.16;6106537;28;108653;-68
2023/08/29 08:25:17;;;;;;;4.75;4.30;;;;;;;28.53;37.02;94234.56;6114363;28;108693;-68
2023/08/29 08:28:21;;;;;;;5.07;4.57;;;;;;;28.48;37.56;94237.59;6114113;28;109283;-67
2023/08/29 08:31:25;;;;;;;5.20;4.70;;;;;;;28.41;37.59;94237.47;6105324;28;109148;-67
2023/08/29 08:34:28;;;;;;;5.50;4.90;;;;;;;28.35;37.98;94225.47;6113592;28;108758;-66
2023/08/29 08:37:33;;;;;;;5.20;4.70;;;;;;;28.28;38.10;94217.31;6113523;28;108917;-67
2023/08/29 08:40:38;;;;;;;5.10;4.70;;;;;;;28.28;37.90;94215.41;6112905;28;108797;-67
2023/08/29 08:43:43;;;;;;;5.00;4.60;;;;;;;28.34;37.96;94222.00;6104088;28;108801;-69
2023/08/29 08:46:48;;;;;;;5.20;4.75;;;;;;;28.41;37.58;94201.72;6113927;28;109280;-68
2023/08/29 08:49:51;;;;;;;5.82;5.22;;;;;;;28.49;37.30;94206.84;6112943;28;108816;-67
2023/08/29 08:52:57;;;;;;;6.10;5.50;;;;;;;28.53;37.43;94210.34;6112494;28;108829;-67
2023/08/29 08:56:00;;;;;;;5.80;5.20;;;;;;;28.59;37.34;94208.09;6085564;28;108942;-68
2023/08/29 08:59:04;;;;;;;5.90;5.40;;;;;;;28.69;37.10;94203.97;6112674;28;108637;-66
2023/08/29 09:02:13;;;;;;;5.30;4.80;;;;;;;28.71;37.11;94207.84;6113592;28;108950;-67
2023/08/29 09:05:16;;;;;;;5.67;5.10;;;;;;;28.67;37.32;94206.25;6102893;28;109825;-68
2023/08/29 09:08:22;;;;;;;5.80;5.20;;;;;;;28.54;37.56;94206.50;6111844;28;109216;-67
2023/08/29 09:11:25;;;;;;;5.80;5.30;;;;;;;28.58;37.03;94209.25;6112886;28;108835;-66
2023/08/29 09:14:29;;;;;;;5.90;5.30;;;;;;;28.64;37.12;94205.84;6113250;28;109155;-67
2023/08/29 09:17:33;;;;;;;5.90;5.30;;;;;;;28.64;37.62;94200.47;6101538;28;108727;-66
2023/08/29 09:20:36;;;;;;;5.90;5.30;;;;;;;28.64;37.47;94197.78;6110778;28;108766;-67
2023/08/29 09:23:41;;;;;;;5.63;5.13;;;;;;;28.62;37.59;94194.69;6111932;28;109014;-67
2023/08/29 09:26:44;;;;;;;6.20;5.60;;;;;;;28.60;37.67;94190.81;6112405;28;108882;-66
2023/08/29 09:29:47;;;;;;;6.00;5.40;;;;;;;28.57;37.64;94192.31;6101721;28;109827;-65
2023/08/29 09:32:52;;;;;;;6.00;5.40;;;;;;;28.53;38.09;94193.41;6112240;28;108697;-66
2023/08/29 09:35:55;;;;;;;5.72;5.22;;;;;;;28.46;37.67;94191.41;6112019;28;108762;-67
2023/08/29 09:39:02;;;;;;;6.30;5.80;;;;;;;28.42;38.11;94197.88;6106956;28;109095;-66
2023/08/29 09:42:06;;;;;;;6.80;5.93;;;;;;;28.36;38.35;94202.78;6106827;28;108812;-65
2023/08/29 09:45:15;;;;;;;6.50;5.90;;;;;;;28.27;37.98;94192.31;6112526;28;108911;-66
2023/08/29 09:48:19;;;;;;;6.30;5.53;;;;;;;28.25;37.82;94194.63;6110520;28;109427;-66
2023/08/29 09:51:23;;;;;;;6.30;5.70;;;;;;;28.21;38.40;94193.00;6099923;28;108908;-67
2023/08/29 09:54:30;;;;;;;6.07;5.55;;;;;;;28.19;38.01;94192.59;6096808;28;108652;-66
2023/08/29 09:57:35;;;;;;;6.27;5.57;;;;;;;28.13;38.00;94194.84;6111097;28;108900;-66
2023/08/29 10:00:40;;;;;;;6.60;6.00;;;;;;;28.13;38.64;94202.13;6110224;28;109215;-66
2023/08/29 10:03:46;;;;;;;5.60;5.10;;;;;;;28.08;38.37;94187.09;6100604;28;108952;-66
2023/08/29 10:06:52;;;;;;;6.20;5.60;;;;;;;28.11;38.14;94193.66;6111338;28;109031;-66
2023/08/29 10:09:57;;;;;;;6.10;5.50;;;;;;;28.07;38.81;94190.16;6110866;28;108647;-66
2023/08/29 10:13:02;;;;;;;6.28;5.40;;;;;;;28.05;38.82;94185.13;6106130;28;109556;-66
2023/08/29 10:16:06;;;;;;;6.35;5.50;;;;;;;28.03;38.92;94190.84;6105855;28;108929;-66
2023/08/29 10:19:11;;;;;;;6.20;5.70;;;;;;;28.01;38.36;94181.59;6110920;28;108744;-66
2023/08/29 10:22:15;;;;;;;6.20;5.60;;;;;;;28.02;38.37;94186.63;6110391;28;108816;-68
2023/08/29 10:25:22;;;;;;;5.97;5.38;;;;;;;28.01;39.02;94182.38;6100048;28;108962;-66
2023/08/29 10:28:26;;;;;;;6.00;5.40;;;;;;;28.04;38.66;94186.25;6110428;28;109880;-65
2023/08/29 10:31:30;;;;;;;6.00;5.60;;;;;;;27.98;38.63;94180.44;6111284;28;109461;-66
2023/08/29 10:34:33;;;;;;;5.90;5.40;;;;;;;28.00;38.58;94194.28;6110917;28;108842;-67
2023/08/29 10:37:37;;;;;;;6.10;5.50;;;;;;;28.00;39.26;94180.06;6100544;28;108937;-67
2023/08/29 10:40:43;;;;;;;6.25;5.70;;;;;;;27.94;38.74;94182.31;6110785;28;108851;-66
2023/08/29 10:43:46;;;;;;;6.15;5.55;;;;;;;27.94;39.23;94187.69;6103262;28;109006;-66
2023/08/29 10:46:53;;;;;;;6.10;5.53;;;;;;;27.91;39.28;94168.81;6106291;28;108886;-67
2023/08/29 10:49:59;;;;;;;5.70;5.20;;;;;;;27.91;39.30;94176.88;6104170;28;109012;-66
2023/08/29 10:53:04;;;;;;;5.90;5.40;;;;;;;27.86;38.91;94186.03;6111193;28;109069;-66
2023/08/29 10:56:09;;;;;;;6.00;5.50;;;;;;;27.85;39.10;94191.72;6109724;28;108645;-66
2023/08/29 10:59:28;;;;;;;6.75;5.60;;;;;;;27.85;38.50;94183.66;6099647;28;108948;-67
2023/08/29 11:02:31;;;;;;;6.18;5.57;;;;;;;27.86;38.69;94183.34;6111224;28;109052;-67
2023/08/29 11:05:39;;;;;;;6.30;5.70;;;;;;;27.86;38.52;94177.16;6110369;28;108890;-66
2023/08/29 11:08:42;;;;;;;6.40;5.50;;;;;;;27.86;39.17;94172.56;6110294;28;109115;-66
2023/08/29 11:12:05;;;;;;;7.40;5.60;;;;;;;27.86;38.71;94161.00;6103450;28;109189;-67
2023/08/29 11:15:08;;;;;;;6.30;5.60;;;;;;;27.85;38.87;94146.78;6103972;28;108823;-68
2023/08/29 11:18:20;;;;;;;5.90;5.40;;;;;;;27.83;39.36;94154.44;6114337;28;109011;-68
2023/08/29 11:21:23;;;;;;;5.97;5.47;;;;;;;27.83;38.87;94159.06;6108574;28;108971;-68
2023/08/29 11:24:27;;;;;;;6.00;5.50;;;;;;;27.83;39.27;94154.44;6110353;28;109325;-68
2023/08/29 11:27:38;;;;;;;6.80;5.80;;;;;;;27.84;38.78;94142.56;6113793;28;109080;-68
2023/08/29 11:30:42;;;;;;;6.40;5.80;;;;;;;27.87;39.21;94141.06;6114285;28;109079;-67
2023/08/29 11:33:48;;;;;;;7.30;5.80;;;;;;;27.91;39.24;94140.00;6103715;28;108861;-67
2023/08/29 11:36:52;;;;;;;6.20;5.60;;;;;;;27.90;38.81;94135.78;6114034;28;108786;-67
2023/08/29 11:39:58;;;;;;;6.25;5.20;;;;;;;27.91;38.87;94139.22;6113903;28;108874;-67
2023/08/29 11:43:03;;;;;;;6.25;5.75;;;;;;;27.91;38.73;94141.91;6114623;28;108703;-67
2023/08/29 11:46:33;;;;;;;6.00;5.50;;;;;;;27.92;38.82;94136.19;6103804;28;109227;-66
2023/08/29 11:49:40;;;;;;;6.50;5.55;;;;;;;27.92;39.30;94140.78;6113759;28;108574;-66
2023/08/29 11:52:44;;;;;;;6.50;5.90;;;;;;;27.90;38.96;94137.69;6114309;28;109855;-66
2023/08/29 11:55:48;;;;;;;6.80;5.70;;;;;;;27.93;39.11;94132.34;6104476;28;111634;-66
2023/08/29 11:58:56;;;;;;;6.50;5.80;;;;;;;27.92;39.29;94125.41;6111810;28;108880;-66
2023/08/29 12:01:59;;;;;;;6.60;5.70;;;;;;;27.98;38.62;94131.25;6113773;28;108876;-66
2023/08/29 12:05:07;;;;;;;6.93;5.90;;;;;;;27.96;38.79;94120.84;6113327;28;109032;-67
2023/08/29 12:08:11;;;;;;;6.68;5.97;;;;;;;27.97;39.08;94119.72;6102395;28;109138;-67
2023/08/29 12:11:16;;;;;;;6.80;6.20;;;;;;;27.98;38.53;94118.56;6113422;28;108727;-67
2023/08/29 12:14:21;;;;;;;6.60;6.00;;;;;;;27.99;38.30;94120.13;6113228;28;109030;-67
2023/08/29 12:17:36;;;;;;;7.22;6.07;;;;;;;27.98;38.58;94121.25;6113561;28;108566;-67
2023/08/29 12:20:39;;;;;;;7.35;6.60;;;;;;;28.00;38.84;94121.66;6105445;28;110098;-67
2023/08/29 12:23:43;;;;;;;6.75;6.15;;;;;;;27.99;38.86;94127.41;6113194;28;108942;-67
2023/08/29 12:26:47;;;;;;;7.10;6.40;;;;;;;28.00;38.78;94124.34;6112909;28;108546;-67
2023/08/29 12:29:51;;;;;;;6.70;6.10;;;;;;;27.99;39.00;94122.81;6101567;28;108801;-66
2023/08/29 12:32:55;;;;;;;6.68;6.07;;;;;;;27.99;38.83;94120.13;6112901;28;108956;-65
2023/08/29 12:35:58;;;;;;;6.50;5.90;;;;;;;27.98;38.36;94118.56;6113050;28;108972;-67
2023/08/29 12:39:02;;;;;;;6.80;6.20;;;;;;;27.98;38.28;94115.88;6112215;28;109036;-66
2023/08/29 12:42:07;;;;;;;6.60;6.10;;;;;;;28.00;38.84;94123.56;6101890;28;108770;-66
2023/08/29 12:45:12;;;;;;;6.93;6.35;;;;;;;28.01;38.25;94119.75;6112971;28;108572;-66
2023/08/29 12:48:18;;;;;;;6.70;6.10;;;;;;;28.00;38.43;94121.66;6112005;28;108948;-67
2023/08/29 12:51:21;;;;;;;7.30;6.60;;;;;;;28.00;38.71;94110.91;6113284;28;110048;-66
2023/08/29 12:54:24;;;;;;;7.10;6.40;;;;;;;28.01;38.50;94112.44;6102770;28;108882;-67
2023/08/29 12:57:28;;;;;;;7.40;6.70;;;;;;;28.03;38.54;94115.53;6112743;28;109465;-68
2023/08/29 13:00:32;;;;;;;7.37;6.77;;;;;;;28.02;38.77;94102.47;6111093;28;109172;-67
2023/08/29 13:03:35;;;;;;;6.90;6.30;;;;;;;28.03;39.07;94101.31;6106938;28;110005;-67
2023/08/29 13:06:39;;;;;;;7.20;6.50;;;;;;;28.04;39.14;94094.78;6107954;28;108970;-67
2023/08/29 13:09:43;;;;;;;6.85;6.30;;;;;;;28.04;38.90;94090.19;6111076;28;108784;-67
2023/08/29 13:12:46;;;;;;;7.40;6.80;;;;;;;28.02;39.24;94086.31;6112595;28;108822;-67
2023/08/29 13:15:51;;;;;;;7.70;7.00;;;;;;;28.03;38.99;94080.56;6102953;28;109952;-67
2023/08/29 13:18:55;;;;;;;7.88;7.18;;;;;;;28.05;38.89;94069.44;6111221;28;108782;-67
2023/08/29 13:21:58;;;;;;;7.30;6.70;;;;;;;28.05;38.49;94059.47;6112476;28;109171;-68
2023/08/29 13:25:01;;;;;;;8.20;7.40;;;;;;;28.07;38.78;94061.03;6112465;28;108651;-68
2023/08/29 13:28:05;;;;;;;7.68;6.97;;;;;;;28.07;38.33;94048.34;6100478;28;108992;-68
2023/08/29 13:31:10;;;;;;;7.83;7.13;;;;;;;28.07;38.27;94042.19;6111151;28;108844;-68
2023/08/29 13:34:14;;;;;;;7.90;7.15;;;;;;;28.04;38.91;94047.16;6111154;28;108735;-67
2023/08/29 13:37:17;;;;;;;7.78;7.07;;;;;;;28.09;38.74;94031.84;6106394;28;109310;-69
2023/08/29 13:40:21;;;;;;;7.97;7.22;;;;;;;28.09;38.23;94038.00;6102433;28;108871;-68
2023/08/29 13:43:24;;;;;;;7.93;7.13;;;;;;;28.08;38.73;94030.31;6111707;28;108858;-69
2023/08/29 13:46:28;;;;;;;8.18;7.38;;;;;;;28.04;39.01;94036.41;6103539;28;108747;-65
2023/08/29 13:49:32;;;;;;;8.27;7.55;;;;;;;27.96;39.14;94029.41;6097515;28;109772;-63
2023/08/29 13:52:35;;;;;;;8.48;7.68;;;;;;;27.96;38.55;94024.03;6112260;28;109018;-63
2023/08/29 13:55:38;;;;;;;9.15;8.35;;;;;;;27.93;38.32;94038.22;6110708;28;108781;-64
2023/08/29 13:58:41;;;;;;;9.73;8.70;;;;;;;28.00;38.39;94034.81;6108461;28;108952;-64
2023/08/29 14:01:49;;;;;;;10.00;8.07;;;;;;;27.96;38.24;94045.53;6099883;28;108879;-64
2023/08/29 14:04:52;;;;;;;9.20;8.30;;;;;;;27.92;38.56;94049.34;6109427;28;108716;-68
2023/08/29 14:07:55;;;;;;;9.05;8.15;;;;;;;27.88;37.79;94064.63;6110075;28;108868;-66
2023/08/29 14:10:59;;;;;;;9.80;8.90;;;;;;;27.82;37.92;94068.78;6110520;28;110092;-68
2023/08/29 14:14:02;;;;;;;11.68;9.20;;;;;;;27.82;38.57;94083.00;6100681;28;109542;-71
2023/08/29 14:17:07;;;;;;;15.00;10.40;;;;;;;27.64;43.17;94065.88;6110566;28;108850;-69